createdAt,value
2017-11-30T00:01:34.712Z,4.30
2017-11-30T00:04:02.375Z,4.40
2017-11-30T00:06:29.889Z,4.30
2017-11-30T00:08:57.446Z,4.30
2017-11-30T00:11:24.953Z,4.30
2017-11-30T00:13:52.546Z,4.40
2017-11-30T00:16:20.047Z,4.40
2017-11-30T00:18:47.582Z,4.30
2017-11-30T00:21:15.861Z,4.40
2017-11-30T00:23:43.661Z,4.40
2017-11-30T00:26:11.201Z,4.30
2017-11-30T00:28:39.481Z,4.30
2017-11-30T00:31:06.987Z,4.20
2017-11-30T00:33:34.597Z,4.20
2017-11-30T00:36:02.161Z,4.20
2017-11-30T00:38:29.858Z,4.30
2017-11-30T00:40:57.480Z,4.30
2017-11-30T00:43:31.506Z,4.30
2017-11-30T00:45:59.230Z,4.40
2017-11-30T00:48:27.704Z,4.40
2017-11-30T00:50:55.445Z,4.30
2017-11-30T00:53:22.957Z,4.30
2017-11-30T00:55:50.670Z,4.20
2017-11-30T00:58:18.893Z,4.30
2017-11-30T01:00:46.461Z,4.30
2017-11-30T01:03:13.979Z,4.30
2017-11-30T01:05:41.480Z,4.30
2017-11-30T01:08:09.148Z,4.40
2017-11-30T01:10:36.668Z,4.20
2017-11-30T01:13:04.482Z,4.20
2017-11-30T01:15:31.997Z,4.30
2017-11-30T01:18:00.278Z,4.30
2017-11-30T01:20:27.996Z,4.30
2017-11-30T01:22:55.505Z,4.40
2017-11-30T01:25:23.142Z,4.30
2017-11-30T01:27:50.661Z,4.30
2017-11-30T01:30:18.425Z,4.20
2017-11-30T01:32:46.163Z,4.20
2017-11-30T01:35:13.644Z,4.20
2017-11-30T01:37:41.170Z,4.10
2017-11-30T01:40:08.685Z,4.10
2017-11-30T01:42:36.295Z,4.00
2017-11-30T01:45:03.913Z,4.20
2017-11-30T01:47:31.443Z,4.20
2017-11-30T01:49:58.943Z,4.20
2017-11-30T01:52:26.458Z,4.20
2017-11-30T01:54:54.025Z,4.10
2017-11-30T01:57:21.680Z,4.20
2017-11-30T01:59:49.439Z,4.20
2017-11-30T02:02:16.966Z,4.20
2017-11-30T02:04:44.648Z,4.20
2017-11-30T02:07:12.148Z,4.20
2017-11-30T02:09:39.867Z,4.20
2017-11-30T02:12:07.428Z,4.10
2017-11-30T02:14:34.917Z,4.10
2017-11-30T02:17:02.561Z,4.00
2017-11-30T02:19:30.053Z,4.00
2017-11-30T02:21:57.772Z,3.90
2017-11-30T02:24:25.307Z,4.00
2017-11-30T02:26:52.992Z,4.00
2017-11-30T02:29:20.753Z,3.80
2017-11-30T02:31:48.291Z,3.80
2017-11-30T02:34:15.790Z,3.70
2017-11-30T02:36:43.306Z,3.70
2017-11-30T02:39:10.870Z,3.80
2017-11-30T02:41:38.673Z,3.80
2017-11-30T02:44:06.164Z,3.90
2017-11-30T02:46:33.711Z,3.90
2017-11-30T02:49:01.989Z,4.00
2017-11-30T02:51:29.536Z,4.00
2017-11-30T02:53:57.796Z,4.00
2017-11-30T02:56:25.329Z,4.00
2017-11-30T02:58:53.080Z,4.10
2017-11-30T03:01:20.608Z,4.00
2017-11-30T03:03:48.890Z,4.10
2017-11-30T03:06:17.515Z,4.00
2017-11-30T03:08:45.021Z,4.10
2017-11-30T03:11:12.654Z,4.10
2017-11-30T03:13:40.154Z,4.10
2017-11-30T03:16:07.945Z,4.10
2017-11-30T03:18:35.477Z,4.10
2017-11-30T03:21:02.969Z,4.10
2017-11-30T03:23:30.473Z,4.10
2017-11-30T03:25:58.740Z,4.00
2017-11-30T03:28:26.252Z,4.00
2017-11-30T03:30:54.418Z,3.80
2017-11-30T03:33:22.852Z,3.80
2017-11-30T03:35:50.358Z,3.90
2017-11-30T03:38:17.947Z,3.80
2017-11-30T03:40:45.430Z,3.80
2017-11-30T03:43:13.696Z,3.80
2017-11-30T03:45:41.424Z,3.80
2017-11-30T03:48:08.938Z,3.80
2017-11-30T03:50:36.614Z,3.90
2017-11-30T03:53:04.122Z,3.80
2017-11-30T03:55:31.622Z,3.80
2017-11-30T03:57:59.154Z,3.80
2017-11-30T04:00:26.687Z,3.80
2017-11-30T04:02:54.238Z,3.80
2017-11-30T04:05:21.997Z,3.70
2017-11-30T04:07:49.783Z,3.70
2017-11-30T04:10:17.543Z,3.70
2017-11-30T04:12:45.063Z,3.80
2017-11-30T04:15:12.570Z,3.80
2017-11-30T04:17:40.212Z,3.90
2017-11-30T04:20:07.717Z,3.90
2017-11-30T04:22:35.413Z,4.00
2017-11-30T04:25:02.957Z,3.90
2017-11-30T04:27:30.468Z,4.00
2017-11-30T04:29:57.973Z,3.90
2017-11-30T04:32:25.554Z,3.90
2017-11-30T04:34:53.226Z,4.00
2017-11-30T04:37:20.792Z,4.00
2017-11-30T04:39:48.295Z,4.00
2017-11-30T04:42:15.953Z,3.90
2017-11-30T04:44:43.487Z,3.90
2017-11-30T04:47:10.982Z,3.90
2017-11-30T04:49:38.652Z,4.00
2017-11-30T04:52:06.157Z,4.00
2017-11-30T04:54:33.881Z,4.10
2017-11-30T04:57:02.012Z,4.00
2017-11-30T04:59:29.550Z,4.00
2017-11-30T05:01:57.160Z,4.00
2017-11-30T05:04:24.944Z,3.80
2017-11-30T05:06:52.456Z,3.70
2017-11-30T05:09:20.045Z,3.80
2017-11-30T05:11:47.644Z,3.80
2017-11-30T05:14:15.233Z,3.90
2017-11-30T05:16:43.510Z,3.90
2017-11-30T05:19:11.026Z,3.90
2017-11-30T05:21:38.554Z,3.90
2017-11-30T05:24:06.057Z,4.00
2017-11-30T05:26:33.593Z,4.00
2017-11-30T05:29:01.422Z,3.90
2017-11-30T05:31:28.960Z,3.90
2017-11-30T05:33:57.221Z,3.90
2017-11-30T05:36:24.849Z,3.90
2017-11-30T05:38:52.353Z,3.90
2017-11-30T05:41:19.873Z,3.90
2017-11-30T05:43:47.413Z,3.90
2017-11-30T05:46:14.927Z,3.90
2017-11-30T05:48:43.465Z,4.00
2017-11-30T05:51:10.969Z,4.00
2017-11-30T05:53:38.508Z,4.00
2017-11-30T05:56:06.140Z,3.80
2017-11-30T05:58:33.658Z,3.90
2017-11-30T06:01:01.367Z,3.80
2017-11-30T06:03:29.089Z,3.90
2017-11-30T06:05:56.700Z,3.90
2017-11-30T06:08:24.205Z,3.90
2017-11-30T06:10:51.725Z,3.90
2017-11-30T06:13:19.258Z,3.70
2017-11-30T06:15:46.757Z,3.60
2017-11-30T06:18:14.413Z,3.50
2017-11-30T06:20:41.942Z,3.60
2017-11-30T06:23:09.705Z,3.60
2017-11-30T06:25:37.258Z,3.60
2017-11-30T06:28:04.887Z,3.70
2017-11-30T06:30:32.386Z,3.70
2017-11-30T06:32:59.907Z,3.70
2017-11-30T06:35:27.411Z,3.70
2017-11-30T06:37:54.945Z,3.70
2017-11-30T06:40:22.488Z,3.80
2017-11-30T06:42:50.006Z,3.70
2017-11-30T06:45:17.726Z,3.80
2017-11-30T06:47:45.257Z,3.80
2017-11-30T06:50:12.919Z,3.80
2017-11-30T06:52:40.418Z,3.70
2017-11-30T06:55:07.924Z,3.80
2017-11-30T06:57:35.419Z,3.80
2017-11-30T07:00:03.012Z,3.80
2017-11-30T07:02:31.398Z,4.80
2017-11-30T07:04:59.007Z,4.80
2017-11-30T07:07:26.713Z,5.20
2017-11-30T07:09:54.349Z,5.20
2017-11-30T07:12:21.862Z,4.90
2017-11-30T07:14:49.376Z,4.20
2017-11-30T07:17:17.098Z,4.00
2017-11-30T07:19:44.617Z,4.00
2017-11-30T07:22:12.174Z,4.00
2017-11-30T07:24:40.446Z,3.80
2017-11-30T07:27:08.298Z,3.80
2017-11-30T07:29:35.791Z,3.70
2017-11-30T07:32:03.307Z,3.90
2017-11-30T07:34:30.857Z,3.80
2017-11-30T07:36:59.564Z,3.90
2017-11-30T07:39:27.313Z,3.90
2017-11-30T07:41:55.057Z,3.80
2017-11-30T07:44:22.557Z,3.70
2017-11-30T07:46:50.256Z,3.60
2017-11-30T07:49:17.777Z,3.60
2017-11-30T07:51:45.497Z,3.60
2017-11-30T07:54:13.245Z,3.60
2017-11-30T07:56:41.029Z,3.50
2017-11-30T07:59:08.541Z,3.40
2017-11-30T08:01:36.053Z,3.40
2017-11-30T08:04:03.580Z,3.50
2017-11-30T08:06:31.074Z,3.40
2017-11-30T08:08:58.615Z,3.50
2017-11-30T08:11:26.349Z,3.30
2017-11-30T08:13:54.140Z,3.50
2017-11-30T08:16:21.637Z,3.40
2017-11-30T08:18:49.370Z,3.50
2017-11-30T08:21:17.013Z,3.70
2017-11-30T08:23:44.553Z,3.70
2017-11-30T08:26:12.044Z,3.60
2017-11-30T08:28:39.552Z,3.60
2017-11-30T08:31:07.054Z,3.70
2017-11-30T08:33:34.568Z,3.70
2017-11-30T08:36:02.477Z,3.70
2017-11-30T08:38:29.981Z,3.70
2017-11-30T08:40:57.697Z,3.70
2017-11-30T08:43:25.460Z,3.70
2017-11-30T08:45:53.228Z,3.70
2017-11-30T08:48:20.742Z,3.80
2017-11-30T08:50:49.103Z,3.80
2017-11-30T08:53:16.610Z,3.60
2017-11-30T08:55:44.104Z,3.60
2017-11-30T08:58:11.610Z,3.70
2017-11-30T09:00:39.118Z,3.70
2017-11-30T09:03:06.625Z,3.80
2017-11-30T09:05:34.308Z,3.90
2017-11-30T09:08:01.933Z,3.80
2017-11-30T09:10:29.432Z,3.80
2017-11-30T09:12:56.935Z,3.60
2017-11-30T09:15:25.199Z,3.70
2017-11-30T09:17:52.929Z,3.70
2017-11-30T09:20:20.709Z,3.60
2017-11-30T09:22:48.451Z,3.70
2017-11-30T09:25:15.962Z,3.70
2017-11-30T09:27:43.509Z,3.70
2017-11-30T09:30:11.026Z,3.80
2017-11-30T09:32:38.534Z,3.80
2017-11-30T09:35:06.093Z,4.00
2017-11-30T09:37:34.815Z,4.10
2017-11-30T09:40:02.459Z,4.10
2017-11-30T09:42:29.965Z,4.00
2017-11-30T09:44:57.452Z,3.90
2017-11-30T09:47:25.171Z,3.90
2017-11-30T09:49:52.679Z,3.90
2017-11-30T09:52:20.277Z,3.90
2017-11-30T09:54:47.800Z,4.00
2017-11-30T09:57:15.944Z,4.10
2017-11-30T09:59:43.458Z,4.00
2017-11-30T10:02:10.961Z,3.90
2017-11-30T10:04:38.471Z,3.90
2017-11-30T10:07:05.991Z,4.00
2017-11-30T10:09:33.522Z,3.90
2017-11-30T10:12:01.046Z,4.00
2017-11-30T10:14:28.608Z,4.10
2017-11-30T10:16:56.177Z,4.20
2017-11-30T10:19:23.741Z,4.20
2017-11-30T10:21:51.247Z,4.20
2017-11-30T10:24:19.596Z,4.20
2017-11-30T10:26:47.290Z,4.20
2017-11-30T10:29:14.959Z,4.20
2017-11-30T10:31:42.469Z,4.20
2017-11-30T10:34:10.018Z,4.10
2017-11-30T10:36:37.514Z,4.20
2017-11-30T10:39:05.801Z,4.00
2017-11-30T10:41:33.298Z,4.00
2017-11-30T10:44:00.813Z,4.00
2017-11-30T10:46:28.337Z,3.90
2017-11-30T10:48:55.875Z,4.00
2017-11-30T10:51:23.389Z,3.90
2017-11-30T10:53:51.135Z,4.00
2017-11-30T10:56:18.646Z,4.00
2017-11-30T10:58:46.154Z,4.10
2017-11-30T11:01:14.454Z,4.20
2017-11-30T11:03:41.963Z,4.20
2017-11-30T11:06:09.510Z,4.20
2017-11-30T11:08:37.016Z,4.10
2017-11-30T11:11:04.873Z,4.00
2017-11-30T11:13:33.218Z,4.10
2017-11-30T11:16:00.739Z,4.10
2017-11-30T11:18:28.432Z,4.20
2017-11-30T11:20:55.977Z,4.30
2017-11-30T11:23:23.520Z,4.10
2017-11-30T11:25:51.129Z,4.10
2017-11-30T11:28:18.668Z,4.10
2017-11-30T11:30:46.361Z,4.20
2017-11-30T11:33:13.876Z,4.20
2017-11-30T11:35:41.415Z,4.20
2017-11-30T11:38:09.060Z,4.30
2017-11-30T11:40:36.579Z,4.30
2017-11-30T11:43:04.179Z,4.10
2017-11-30T11:45:31.669Z,4.10
2017-11-30T11:47:59.225Z,4.10
2017-11-30T11:50:26.749Z,4.10
2017-11-30T11:52:54.248Z,4.10
2017-11-30T11:55:22.334Z,4.10
2017-11-30T11:57:49.833Z,4.10
2017-11-30T12:00:17.366Z,4.10
2017-11-30T12:02:44.857Z,4.10
2017-11-30T12:05:12.361Z,4.20
2017-11-30T12:07:39.887Z,4.30
2017-11-30T12:10:07.388Z,4.30
2017-11-30T12:12:34.933Z,4.20
2017-11-30T12:15:02.480Z,4.20
2017-11-30T12:17:30.124Z,4.30
2017-11-30T12:19:57.676Z,4.30
2017-11-30T12:22:25.222Z,4.10
2017-11-30T12:24:53.564Z,4.20
2017-11-30T12:27:21.178Z,4.20
2017-11-30T12:29:48.697Z,4.30
2017-11-30T12:32:16.216Z,4.30
2017-11-30T12:34:43.874Z,4.10
2017-11-30T12:37:11.416Z,4.00
2017-11-30T12:39:39.102Z,4.00
2017-11-30T12:42:06.678Z,4.10
2017-11-30T12:44:34.236Z,4.20
2017-11-30T12:47:01.806Z,4.10
2017-11-30T12:49:29.345Z,4.10
2017-11-30T12:51:56.925Z,4.10
2017-11-30T12:54:24.466Z,4.10
2017-11-30T12:56:51.966Z,4.10
2017-11-30T12:59:19.500Z,4.10
2017-11-30T13:01:47.949Z,4.20
2017-11-30T13:04:15.507Z,4.20
2017-11-30T13:06:43.046Z,4.20
2017-11-30T13:09:10.715Z,4.20
2017-11-30T13:11:38.243Z,4.20
2017-11-30T13:14:05.772Z,4.10
2017-11-30T13:16:34.764Z,4.10
2017-11-30T13:19:03.061Z,4.20
2017-11-30T13:21:30.610Z,4.20
2017-11-30T13:23:58.914Z,4.20
2017-11-30T13:26:26.576Z,4.20
2017-11-30T13:28:54.388Z,4.20
2017-11-30T13:31:21.883Z,4.20
2017-11-30T13:33:49.580Z,4.20
2017-11-30T13:36:17.404Z,4.20
2017-11-30T13:38:44.972Z,4.20
2017-11-30T13:41:12.479Z,4.10
2017-11-30T13:43:39.985Z,4.00
2017-11-30T13:46:07.520Z,3.90
2017-11-30T13:48:35.116Z,3.90
2017-11-30T13:51:02.722Z,3.80
2017-11-30T13:53:30.237Z,3.80
2017-11-30T13:55:57.742Z,3.90
2017-11-30T13:58:25.634Z,4.00
2017-11-30T14:00:53.138Z,4.00
2017-11-30T14:03:20.632Z,4.00
2017-11-30T14:05:48.216Z,4.00
2017-11-30T14:08:15.855Z,4.00
2017-11-30T14:10:43.399Z,4.00
2017-11-30T14:13:11.797Z,4.10
2017-11-30T14:15:40.079Z,4.10
2017-11-30T14:18:07.805Z,4.10
2017-11-30T14:20:35.315Z,4.00
2017-11-30T14:23:03.051Z,4.00
2017-11-30T14:25:30.551Z,3.90
2017-11-30T14:27:58.232Z,3.90
2017-11-30T14:30:25.774Z,3.90
2017-11-30T14:32:53.284Z,4.10
2017-11-30T14:35:21.826Z,4.00
2017-11-30T14:37:50.140Z,4.00
2017-11-30T14:40:18.604Z,4.10
2017-11-30T14:42:46.132Z,4.10
2017-11-30T14:45:13.813Z,4.00
2017-11-30T14:47:41.396Z,4.00
2017-11-30T14:50:09.031Z,4.00
2017-11-30T14:52:36.560Z,4.00
2017-11-30T14:55:04.384Z,4.00
2017-11-30T14:57:31.888Z,4.10
2017-11-30T14:59:59.427Z,4.10
2017-11-30T15:02:27.244Z,4.20
2017-11-30T15:04:54.752Z,4.10
2017-11-30T15:07:22.511Z,4.10
2017-11-30T15:09:49.980Z,4.10
2017-11-30T15:12:17.536Z,4.00
2017-11-30T15:14:45.039Z,4.00
2017-11-30T15:17:12.585Z,4.00
2017-11-30T15:19:40.077Z,4.10
2017-11-30T15:22:07.644Z,4.10
2017-11-30T15:24:35.936Z,4.10
2017-11-30T15:27:03.648Z,4.10
2017-11-30T15:29:31.159Z,4.10
2017-11-30T15:31:58.855Z,4.10
2017-11-30T15:34:26.358Z,4.00
2017-11-30T15:36:54.673Z,4.00
2017-11-30T15:39:22.179Z,4.00
2017-11-30T15:41:49.675Z,3.90
2017-11-30T15:44:17.215Z,4.00
2017-11-30T15:46:45.603Z,3.90
2017-11-30T15:49:13.109Z,3.90
2017-11-30T15:51:40.621Z,4.00
2017-11-30T15:54:08.427Z,4.00
2017-11-30T15:56:36.192Z,4.00
2017-11-30T15:59:03.943Z,4.10
2017-11-30T16:01:31.459Z,4.10
2017-11-30T16:03:58.982Z,4.10
2017-11-30T16:06:26.504Z,4.00
2017-11-30T16:08:54.057Z,4.00
2017-11-30T16:11:21.610Z,4.00
2017-11-30T16:13:49.163Z,4.00
2017-11-30T16:16:16.754Z,4.00
2017-11-30T16:18:44.286Z,3.90
2017-11-30T16:21:12.512Z,3.80
2017-11-30T16:23:40.231Z,3.80
2017-11-30T16:26:07.870Z,3.90
2017-11-30T16:28:35.584Z,4.00
2017-11-30T16:31:03.088Z,4.00
2017-11-30T16:33:30.826Z,3.90
2017-11-30T16:35:58.340Z,3.90
2017-11-30T16:38:25.836Z,3.90
2017-11-30T16:40:53.495Z,3.90
2017-11-30T16:43:21.035Z,3.90
2017-11-30T16:45:48.544Z,4.00
2017-11-30T16:48:16.064Z,4.00
2017-11-30T16:50:43.563Z,4.00
2017-11-30T16:53:11.576Z,4.10
2017-11-30T16:55:39.104Z,4.00
2017-11-30T16:58:06.623Z,4.00
2017-11-30T17:00:34.353Z,3.90
2017-11-30T17:03:02.167Z,3.90
2017-11-30T17:05:29.741Z,3.90
2017-11-30T17:07:57.264Z,4.00
2017-11-30T17:10:24.796Z,3.90
2017-11-30T17:12:54.019Z,3.90
2017-11-30T17:15:21.548Z,3.90
2017-11-30T17:17:49.099Z,3.90
2017-11-30T17:20:16.599Z,4.10
2017-11-30T17:22:44.229Z,4.30
2017-11-30T17:25:11.749Z,4.50
2017-11-30T17:27:39.269Z,4.60
2017-11-30T17:30:06.886Z,4.70
2017-11-30T17:32:34.425Z,4.60
2017-11-30T17:35:01.923Z,4.70
2017-11-30T17:37:29.432Z,4.70
2017-11-30T17:39:57.020Z,4.70
2017-11-30T17:42:24.544Z,4.80
2017-11-30T17:44:52.076Z,4.90
2017-11-30T17:47:19.584Z,4.70
2017-11-30T17:49:47.150Z,4.80
2017-11-30T17:52:14.662Z,4.90
2017-11-30T17:54:42.379Z,4.80
2017-11-30T17:57:09.868Z,4.60
2017-11-30T17:59:38.117Z,4.60
2017-11-30T18:02:05.707Z,4.70
2017-11-30T18:04:33.650Z,4.80
2017-11-30T18:07:01.168Z,4.80
2017-11-30T18:09:28.707Z,4.70
2017-11-30T18:11:56.272Z,4.60
2017-11-30T18:14:24.640Z,4.70
2017-11-30T18:16:52.952Z,4.50
2017-11-30T18:19:20.575Z,4.50
2017-11-30T18:21:48.820Z,4.30
2017-11-30T18:24:16.328Z,4.30
2017-11-30T18:26:44.051Z,4.30
2017-11-30T18:29:11.558Z,4.30
2017-11-30T18:31:39.119Z,4.30
2017-11-30T18:34:06.633Z,4.20
2017-11-30T18:36:34.379Z,4.20
2017-11-30T18:39:01.888Z,4.20
2017-11-30T18:41:29.397Z,4.20
2017-11-30T18:43:56.913Z,4.20
2017-11-30T18:46:24.425Z,4.20
2017-11-30T18:48:51.943Z,4.20
2017-11-30T18:51:19.444Z,4.20
2017-11-30T18:53:46.955Z,4.30
2017-11-30T18:56:14.460Z,4.20
2017-11-30T18:58:42.101Z,4.20
2017-11-30T19:01:09.638Z,4.20
2017-11-30T19:03:37.451Z,4.30
2017-11-30T19:06:05.731Z,4.30
2017-11-30T19:08:34.147Z,4.30
2017-11-30T19:11:01.816Z,4.30
2017-11-30T19:13:29.352Z,4.30
2017-11-30T19:15:56.967Z,4.30
2017-11-30T19:18:24.507Z,4.30
2017-11-30T19:20:52.018Z,4.20
2017-11-30T19:23:19.588Z,4.20
2017-11-30T19:25:47.107Z,4.20
2017-11-30T19:28:14.599Z,4.20
2017-11-30T19:30:42.168Z,4.20
2017-11-30T19:33:09.739Z,4.20
2017-11-30T19:35:37.276Z,4.10
2017-11-30T19:38:05.075Z,4.20
2017-11-30T19:40:32.580Z,4.10
2017-11-30T19:43:01.224Z,4.10
2017-11-30T19:45:28.750Z,4.20
2017-11-30T19:47:56.252Z,4.20
2017-11-30T19:50:23.872Z,4.20
2017-11-30T19:52:51.392Z,4.20
2017-11-30T19:55:18.911Z,4.20
2017-11-30T19:57:46.577Z,4.20
2017-11-30T20:00:14.084Z,4.20
2017-11-30T20:02:41.600Z,4.20
2017-11-30T20:05:09.226Z,4.30
2017-11-30T20:07:36.752Z,4.30
2017-11-30T20:10:04.280Z,4.20
2017-11-30T20:12:31.784Z,4.20
2017-11-30T20:14:59.291Z,4.20
2017-11-30T20:17:26.830Z,4.20
2017-11-30T20:19:54.352Z,4.10
2017-11-30T20:22:22.076Z,4.00
2017-11-30T20:24:49.589Z,3.90
2017-11-30T20:27:17.087Z,3.80
2017-11-30T20:29:44.853Z,3.90
2017-11-30T20:32:12.384Z,4.00
2017-11-30T20:34:39.955Z,4.00
2017-11-30T20:37:07.489Z,4.10
2017-11-30T20:39:34.987Z,4.10
2017-11-30T20:42:02.647Z,4.10
2017-11-30T20:44:30.155Z,4.20
2017-11-30T20:46:57.760Z,4.30
2017-11-30T20:49:25.274Z,4.20
2017-11-30T20:51:52.838Z,4.20
2017-11-30T20:54:20.851Z,4.10
2017-11-30T20:56:48.403Z,4.20
2017-11-30T20:59:15.924Z,4.00
2017-11-30T21:01:43.448Z,4.00
2017-11-30T21:04:11.012Z,4.10
2017-11-30T21:06:38.753Z,4.00
2017-11-30T21:09:07.760Z,4.20
2017-11-30T21:11:35.276Z,4.20
2017-11-30T21:14:02.780Z,4.00
2017-11-30T21:16:31.067Z,4.00
2017-11-30T21:18:59.353Z,3.90
2017-11-30T21:21:26.871Z,4.00
2017-11-30T21:23:54.356Z,3.90
2017-11-30T21:26:22.083Z,3.90
2017-11-30T21:28:49.592Z,3.80
2017-11-30T21:31:17.110Z,3.80
2017-11-30T21:33:44.619Z,3.80
2017-11-30T21:36:12.244Z,3.80
2017-11-30T21:38:39.752Z,3.80
2017-11-30T21:41:07.298Z,3.80
2017-11-30T21:43:34.862Z,3.80
2017-11-30T21:46:02.383Z,3.80
2017-11-30T21:48:29.940Z,3.60
2017-11-30T21:50:58.476Z,3.80
2017-11-30T21:53:26.017Z,3.70
2017-11-30T21:55:53.690Z,3.70
2017-11-30T21:58:21.236Z,3.70
2017-11-30T22:00:48.968Z,3.70
2017-11-30T22:03:16.675Z,3.80
2017-11-30T22:05:44.175Z,3.60
2017-11-30T22:08:12.344Z,3.60
2017-11-30T22:10:40.647Z,3.70
2017-11-30T22:13:08.328Z,3.60
2017-11-30T22:15:35.821Z,3.70
2017-11-30T22:18:03.452Z,3.70
2017-11-30T22:20:30.988Z,3.70
2017-11-30T22:22:58.524Z,3.70
2017-11-30T22:25:26.208Z,3.60
2017-11-30T22:27:54.026Z,3.70
2017-11-30T22:30:21.579Z,3.80
2017-11-30T22:32:50.786Z,3.70
2017-11-30T22:35:18.735Z,3.70
2017-11-30T22:37:46.882Z,3.80
2017-11-30T22:40:14.480Z,3.90
2017-11-30T22:42:42.374Z,4.00
2017-11-30T22:45:09.979Z,3.90
2017-11-30T22:47:37.484Z,3.80
2017-11-30T22:50:07.199Z,3.90
2017-11-30T22:52:35.216Z,3.90
2017-11-30T22:55:02.882Z,4.10
2017-11-30T22:57:31.575Z,3.90
2017-11-30T22:59:59.124Z,3.80
2017-11-30T23:02:26.704Z,3.80
2017-11-30T23:04:54.285Z,3.80
2017-11-30T23:07:21.767Z,3.70
2017-11-30T23:09:49.339Z,3.60
2017-11-30T23:12:17.133Z,3.60
2017-11-30T23:14:44.710Z,3.70
2017-11-30T23:17:12.208Z,3.90
2017-11-30T23:19:39.733Z,3.90
2017-11-30T23:22:07.232Z,3.90
2017-11-30T23:24:34.731Z,3.70
2017-11-30T23:27:02.481Z,3.70
2017-11-30T23:29:29.979Z,3.80
2017-11-30T23:31:57.739Z,3.80
2017-11-30T23:34:25.243Z,3.70
2017-11-30T23:36:52.752Z,3.60
2017-11-30T23:39:20.376Z,3.60
2017-11-30T23:41:48.149Z,3.50
2017-11-30T23:44:15.679Z,3.70
2017-11-30T23:46:43.344Z,3.60
2017-11-30T23:49:10.839Z,3.80
2017-11-30T23:51:38.395Z,3.80
2017-11-30T23:54:05.907Z,3.80
2017-11-30T23:56:34.426Z,3.80
2017-11-30T23:59:01.932Z,3.80
